Time;durP1;ratioP1;P1;durP2;ratioP2;P2;SDS_P1;SDS_P2;PMS_P1;PMS_P2;Temp;Humidity;BMP_temperature;BMP_pressure;BME280_temperature;BME280_humidity;BME280_pressure;Samples;Min_cycle;Max_cycle;Signal;HPM_P1;HPM_P2
2022/03/13 08:35:17;;;;;;;12.87;7.43;;;;;;;;;;5019351;28;20202;-64
2022/03/13 08:37:45;;;;;;;10.77;7.30;;;;;;;;;;5016912;28;20234;-63
2022/03/13 08:40:13;;;;;;;10.20;6.50;;;;;;;;;;5009282;28;20646;-65
2022/03/13 08:42:40;;;;;;;9.73;6.33;;;;;;;;;;5019975;28;20210;-64
2022/03/13 08:45:08;;;;;;;11.10;7.43;;;;;;;;;;5031764;28;20194;-64
2022/03/13 08:47:36;;;;;;;13.13;8.00;;;;;;;;;;5012511;28;20791;-64
2022/03/13 08:50:04;;;;;;;11.50;7.63;;;;;;;;;;5003355;28;20787;-64
2022/03/13 08:52:31;;;;;;;11.50;7.83;;;;;;;;;;5016015;28;20218;-66
2022/03/13 08:54:58;;;;;;;10.63;8.03;;;;;;;;;;5029613;28;20249;-66
2022/03/13 08:57:26;;;;;;;10.57;7.50;;;;;;;;;;5011049;28;20618;-65
2022/03/13 08:59:54;;;;;;;11.57;7.83;;;;;;;;;;5001464;28;20206;-66
2022/03/13 09:02:22;;;;;;;11.90;7.57;;;;;;;;;;5009175;28;20248;-66
2022/03/13 09:04:50;;;;;;;12.10;7.87;;;;;;;;;;5024065;28;20759;-66
2022/03/13 09:07:17;;;;;;;14.43;9.77;;;;;;;;;;5026775;28;20691;-65
2022/03/13 09:09:46;;;;;;;16.90;10.87;;;;;;;;;;5002184;28;20215;-65
2022/03/13 09:12:13;;;;;;;15.67;11.03;;;;;;;;;;5007332;28;20218;-66
2022/03/13 09:14:40;;;;;;;15.90;10.47;;;;;;;;;;4998246;28;20210;-64
2022/03/13 09:17:08;;;;;;;18.57;10.87;;;;;;;;;;5008001;28;20249;-65
2022/03/13 09:19:35;;;;;;;16.43;11.43;;;;;;;;;;5009525;28;20660;-66
2022/03/13 09:22:03;;;;;;;23.73;14.17;;;;;;;;;;5035289;28;20206;-65
2022/03/13 09:24:30;;;;;;;18.30;12.43;;;;;;;;;;5025868;28;20206;-66
2022/03/13 09:26:57;;;;;;;21.30;12.70;;;;;;;;;;5022175;28;20225;-66
2022/03/13 09:29:25;;;;;;;18.10;12.47;;;;;;;;;;5022982;28;20576;-65
2022/03/13 09:31:55;;;;;;;21.03;13.57;;;;;;;;;;5022469;28;20207;-66
2022/03/13 09:34:23;;;;;;;18.60;13.20;;;;;;;;;;5029930;28;20217;-66
2022/03/13 09:36:50;;;;;;;19.63;13.17;;;;;;;;;;5045826;28;20219;-66
2022/03/13 09:39:17;;;;;;;19.63;13.20;;;;;;;;;;5033152;28;20230;-67
2022/03/13 09:41:45;;;;;;;21.57;12.73;;;;;;;;;;5047420;28;20201;-65
2022/03/13 09:44:12;;;;;;;20.00;12.63;;;;;;;;;;5031371;28;20198;-66
2022/03/13 09:46:39;;;;;;;17.80;12.27;;;;;;;;;;5037277;28;20211;-66
2022/03/13 09:49:07;;;;;;;19.00;13.10;;;;;;;;;;5016008;28;20232;-65
2022/03/13 09:51:35;;;;;;;18.63;12.70;;;;;;;;;;5029263;28;20209;-64
2022/03/13 09:54:03;;;;;;;19.20;12.80;;;;;;;;;;5008076;28;20617;-66
2022/03/13 09:56:34;;;;;;;18.27;12.63;;;;;;;;;;5022439;28;20226;-65
2022/03/13 09:59:04;;;;;;;20.03;13.77;;;;;;;;;;5018098;28;20222;-64
2022/03/13 10:01:31;;;;;;;18.40;12.53;;;;;;;;;;5027001;28;20636;-66
2022/03/13 10:03:59;;;;;;;19.60;13.00;;;;;;;;;;5049453;28;20293;-64
2022/03/13 10:06:27;;;;;;;21.10;14.93;;;;;;;;;;5053760;28;20450;-66
2022/03/13 10:08:54;;;;;;;18.77;13.10;;;;;;;;;;5044355;28;20234;-66
2022/03/13 10:11:34;;;;;;;21.33;13.80;;;;;;;;;;5031548;28;20206;-66
2022/03/13 10:14:10;;;;;;;22.80;14.33;;;;;;;;;;5038096;28;20211;-65
2022/03/13 10:16:39;;;;;;;19.40;13.77;;;;;;;;;;5033362;28;20583;-66
2022/03/13 10:19:14;;;;;;;20.63;14.13;;;;;;;;;;5043185;28;20283;-66
2022/03/13 10:22:00;;;;;;;21.77;14.83;;;;;;;;;;5047515;28;20219;-66
2022/03/13 10:24:27;;;;;;;20.83;13.23;;;;;;;;;;5037890;28;20263;-65
2022/03/13 10:27:10;;;;;;;20.47;14.33;;;;;;;;;;5027718;28;20207;-66
2022/03/13 10:29:38;;;;;;;24.30;15.10;;;;;;;;;;5033575;28;20695;-66
2022/03/13 10:32:05;;;;;;;23.97;15.40;;;;;;;;;;5058132;28;20198;-65
2022/03/13 10:34:34;;;;;;;21.63;14.77;;;;;;;;;;5034090;28;20301;-66
2022/03/13 10:37:02;;;;;;;22.43;14.47;;;;;;;;;;5062688;28;20591;-66
2022/03/13 10:39:30;;;;;;;23.80;17.00;;;;;;;;;;5028854;28;20324;-65
2022/03/13 10:42:04;;;;;;;23.23;16.77;;;;;;;;;;5035930;28;20207;-65
2022/03/13 10:44:36;;;;;;;20.03;13.50;;;;;;;;;;5037467;28;20260;-65
2022/03/13 10:47:10;;;;;;;23.83;15.57;;;;;;;;;;5060783;28;20209;-65
2022/03/13 10:49:44;;;;;;;22.10;14.10;;;;;;;;;;5048130;28;20267;-65
2022/03/13 10:52:29;;;;;;;21.37;13.93;;;;;;;;;;5022661;28;20934;-65
2022/03/13 10:55:19;;;;;;;20.53;14.30;;;;;;;;;;5052817;28;20281;-67
2022/03/13 10:57:55;;;;;;;22.10;15.13;;;;;;;;;;5058327;28;20237;-66
2022/03/13 11:00:23;;;;;;;33.67;20.87;;;;;;;;;;5053245;28;20201;-66
2022/03/13 11:02:51;;;;;;;17.67;13.10;;;;;;;;;;5046996;28;20207;-65
2022/03/13 11:05:18;;;;;;;25.00;17.13;;;;;;;;;;5032846;28;20644;-66
2022/03/13 11:07:52;;;;;;;21.47;13.63;;;;;;;;;;5038887;28;20233;-66
2022/03/13 11:10:19;;;;;;;20.13;13.70;;;;;;;;;;5044235;28;20568;-67
2022/03/13 11:12:48;;;;;;;18.07;13.07;;;;;;;;;;5030593;28;20216;-65
2022/03/13 11:15:16;;;;;;;20.80;12.87;;;;;;;;;;5052705;28;20581;-66
2022/03/13 11:17:44;;;;;;;17.57;12.50;;;;;;;;;;5023993;28;20833;-66
2022/03/13 11:20:13;;;;;;;18.33;13.17;;;;;;;;;;5037857;28;20202;-65
2022/03/13 11:22:40;;;;;;;20.57;12.50;;;;;;;;;;5049720;28;20211;-66
2022/03/13 11:25:08;;;;;;;20.30;14.13;;;;;;;;;;5028890;28;20198;-65
2022/03/13 11:27:37;;;;;;;17.77;13.10;;;;;;;;;;5052446;28;20339;-65
2022/03/13 11:30:06;;;;;;;21.00;15.23;;;;;;;;;;5047610;28;20210;-66
2022/03/13 11:32:49;;;;;;;20.43;14.80;;;;;;;;;;5050533;28;20205;-66
2022/03/13 11:35:18;;;;;;;19.17;13.07;;;;;;;;;;5029610;28;20264;-66
2022/03/13 11:37:46;;;;;;;17.10;12.37;;;;;;;;;;5043431;28;20225;-66
2022/03/13 11:40:15;;;;;;;18.83;11.80;;;;;;;;;;5054869;28;20735;-66
2022/03/13 11:42:47;;;;;;;18.70;12.70;;;;;;;;;;5047503;28;20830;-66
2022/03/13 11:45:29;;;;;;;17.17;12.70;;;;;;;;;;5029343;28;20219;-66
2022/03/13 11:47:57;;;;;;;16.10;11.97;;;;;;;;;;5039207;28;20222;-66
2022/03/13 11:50:43;;;;;;;18.48;13.00;;;;;;;;;;5040327;28;20425;-65
2022/03/13 11:53:16;;;;;;;16.63;11.93;;;;;;;;;;5043577;28;20660;-65
2022/03/13 11:56:09;;;;;;;16.00;11.20;;;;;;;;;;5042379;28;20259;-65
2022/03/13 11:58:50;;;;;;;14.80;11.20;;;;;;;;;;5027469;28;20298;-65
2022/03/13 12:01:21;;;;;;;15.27;11.27;;;;;;;;;;5049569;28;20237;-65
2022/03/13 12:04:04;;;;;;;15.03;10.77;;;;;;;;;;5045116;28;20206;-66
2022/03/13 12:06:39;;;;;;;15.57;11.03;;;;;;;;;;5060418;28;20581;-66
2022/03/13 12:09:07;;;;;;;14.40;9.67;;;;;;;;;;5031380;28;20225;-65
2022/03/13 12:11:46;;;;;;;12.77;9.27;;;;;;;;;;5043354;28;20253;-65
2022/03/13 12:14:15;;;;;;;13.23;9.17;;;;;;;;;;5053710;28;20202;-67
2022/03/13 12:16:43;;;;;;;11.97;8.67;;;;;;;;;;5045945;28;20225;-66
2022/03/13 12:19:12;;;;;;;11.07;8.57;;;;;;;;;;5047681;28;20222;-65
2022/03/13 12:21:44;;;;;;;10.43;7.87;;;;;;;;;;5028320;28;20691;-66
2022/03/13 12:24:15;;;;;;;12.43;8.73;;;;;;;;;;5033322;28;20849;-66
2022/03/13 12:26:43;;;;;;;10.93;8.03;;;;;;;;;;5043012;28;20563;-65
2022/03/13 12:29:18;;;;;;;14.00;9.63;;;;;;;;;;5031776;28;20233;-66
2022/03/13 12:31:48;;;;;;;11.07;7.83;;;;;;;;;;5048939;28;20197;-65
2022/03/13 12:34:25;;;;;;;9.47;7.57;;;;;;;;;;5033908;28;20321;-64
2022/03/13 12:36:53;;;;;;;9.80;7.60;;;;;;;;;;5052077;28;20286;-64
2022/03/13 12:39:21;;;;;;;11.43;8.27;;;;;;;;;;5028308;28;20223;-66
2022/03/13 12:41:58;;;;;;;10.47;7.80;;;;;;;;;;5040259;28;20203;-65
2022/03/13 12:44:33;;;;;;;10.87;7.77;;;;;;;;;;5045509;28;20201;-66
2022/03/13 12:47:00;;;;;;;12.23;7.73;;;;;;;;;;5050111;28;20202;-66
2022/03/13 12:49:29;;;;;;;10.30;7.17;;;;;;;;;;5030974;28;20219;-67
2022/03/13 12:51:57;;;;;;;9.60;7.30;;;;;;;;;;5048905;28;20215;-66
2022/03/13 12:54:32;;;;;;;11.30;7.50;;;;;;;;;;5043102;28;20209;-65
2022/03/13 12:57:04;;;;;;;9.50;7.63;;;;;;;;;;5029263;28;20226;-66
2022/03/13 12:59:31;;;;;;;11.03;7.90;;;;;;;;;;5059494;28;20202;-66
2022/03/13 13:02:03;;;;;;;10.20;7.27;;;;;;;;;;5012586;28;20206;-66
2022/03/13 13:04:32;;;;;;;10.65;7.63;;;;;;;;;;5027434;28;20213;-65
2022/03/13 13:06:59;;;;;;;11.07;7.95;;;;;;;;;;5036448;28;20202;-65
2022/03/13 13:09:28;;;;;;;11.60;8.57;;;;;;;;;;5035593;28;20222;-65
2022/03/13 13:11:56;;;;;;;11.50;8.43;;;;;;;;;;5060695;28;20212;-67
2022/03/13 13:14:24;;;;;;;11.15;7.82;;;;;;;;;;5040955;28;20206;-64
2022/03/13 13:16:52;;;;;;;9.75;7.93;;;;;;;;;;5054970;28;20210;-66
2022/03/13 13:19:20;;;;;;;10.63;7.90;;;;;;;;;;5042137;28;20226;-66
2022/03/13 13:21:58;;;;;;;9.63;7.95;;;;;;;;;;5050351;28;20643;-65
2022/03/13 13:24:34;;;;;;;10.50;7.60;;;;;;;;;;5026037;28;20199;-66
2022/03/13 13:27:02;;;;;;;10.07;7.07;;;;;;;;;;5028128;28;20214;-64
2022/03/13 13:29:31;;;;;;;8.75;6.75;;;;;;;;;;5035050;28;20198;-66
2022/03/13 13:32:19;;;;;;;9.05;7.05;;;;;;;;;;5024246;28;20263;-65
2022/03/13 13:35:01;;;;;;;10.13;7.97;;;;;;;;;;5013924;28;20213;-65
2022/03/13 13:37:29;;;;;;;11.82;8.63;;;;;;;;;;5036813;28;20221;-66
2022/03/13 13:40:08;;;;;;;11.15;7.45;;;;;;;;;;5049534;28;20288;-65
2022/03/13 13:42:36;;;;;;;8.05;6.57;;;;;;;;;;5034368;28;20258;-66
2022/03/13 13:45:24;;;;;;;10.48;7.90;;;;;;;;;;5009802;28;20260;-64
2022/03/13 13:47:52;;;;;;;10.27;7.88;;;;;;;;;;5015391;28;21591;-65
2022/03/13 13:50:27;;;;;;;10.52;7.93;;;;;;;;;;5025719;28;20206;-65
2022/03/13 13:53:02;;;;;;;9.10;7.10;;;;;;;;;;5012595;28;20225;-66
2022/03/13 13:55:35;;;;;;;11.00;8.40;;;;;;;;;;5031494;28;20644;-67
2022/03/13 13:58:22;;;;;;;10.65;8.10;;;;;;;;;;5010429;28;20726;-66
2022/03/13 14:00:50;;;;;;;10.60;7.97;;;;;;;;;;5034071;28;20206;-67
2022/03/13 14:03:19;;;;;;;8.75;7.18;;;;;;;;;;5013937;28;20210;-66
2022/03/13 14:12:27;;;;;;;12.05;8.52;;;;;;;;;;5111131;22;20798;-74
2022/03/13 14:14:55;;;;;;;9.82;7.60;;;;;;;;;;5012644;28;20214;-74
2022/03/13 14:17:22;;;;;;;10.30;8.20;;;;;;;;;;5013950;28;20303;-74
2022/03/13 14:19:50;;;;;;;10.48;7.85;;;;;;;;;;4999386;28;20207;-74
2022/03/13 14:35:26;;;;;;;12.63;8.88;;;;;;;;;;5015455;28;20225;-65
2022/03/13 14:37:54;;;;;;;11.50;8.88;;;;;;;;;;5015665;28;20313;-66
2022/03/13 14:40:37;;;;;;;16.02;12.77;;;;;;;;;;5016256;28;20294;-66
2022/03/13 14:43:05;;;;;;;10.05;8.23;;;;;;;;;;5016564;28;20206;-65
2022/03/13 14:45:32;;;;;;;12.00;8.20;;;;;;;;;;5009540;28;20276;-66
2022/03/13 14:48:04;;;;;;;9.82;7.72;;;;;;;;;;5017359;28;20233;-66
2022/03/13 14:50:46;;;;;;;10.07;6.88;;;;;;;;;;5011393;28;20207;-64
2022/03/13 14:53:18;;;;;;;8.15;6.70;;;;;;;;;;5014432;28;20542;-64
2022/03/13 14:55:45;;;;;;;9.23;7.32;;;;;;;;;;5012026;28;20268;-64
2022/03/13 14:58:13;;;;;;;9.98;7.43;;;;;;;;;;5004579;28;20605;-66
2022/03/13 15:00:41;;;;;;;10.48;7.35;;;;;;;;;;5010794;28;20203;-66
2022/03/13 15:03:09;;;;;;;10.27;8.05;;;;;;;;;;5016992;28;20200;-64
2022/03/13 15:05:37;;;;;;;14.07;9.93;;;;;;;;;;5008932;28;20204;-65
2022/03/13 15:08:04;;;;;;;27.33;19.13;;;;;;;;;;5010529;28;20261;-65
2022/03/13 15:10:32;;;;;;;15.50;11.90;;;;;;;;;;5005504;28;20223;-66
2022/03/13 15:13:00;;;;;;;9.80;7.72;;;;;;;;;;5001333;28;20266;-66
2022/03/13 15:15:27;;;;;;;8.10;6.70;;;;;;;;;;5012721;28;20210;-65
2022/03/13 15:17:55;;;;;;;8.60;6.93;;;;;;;;;;5014009;28;20235;-65
2022/03/13 15:20:24;;;;;;;8.75;7.10;;;;;;;;;;5020483;28;20210;-65
2022/03/13 15:22:52;;;;;;;8.73;7.30;;;;;;;;;;5016480;28;20739;-66
2022/03/13 15:25:20;;;;;;;10.57;7.90;;;;;;;;;;5009759;28;20222;-66
2022/03/13 15:27:49;;;;;;;7.72;6.80;;;;;;;;;;5024181;28;20239;-66
2022/03/13 15:30:18;;;;;;;9.07;7.50;;;;;;;;;;5012148;28;20206;-65
2022/03/13 15:32:46;;;;;;;9.05;7.38;;;;;;;;;;5010839;28;20206;-64
2022/03/13 15:35:15;;;;;;;7.68;6.88;;;;;;;;;;5026361;28;20214;-67
2022/03/13 15:37:44;;;;;;;7.70;6.90;;;;;;;;;;5008605;28;20265;-65
2022/03/13 15:40:13;;;;;;;8.30;7.03;;;;;;;;;;5031518;28;20208;-66
2022/03/13 15:42:40;;;;;;;9.38;8.15;;;;;;;;;;5010013;28;20215;-64
2022/03/13 15:45:08;;;;;;;10.32;7.57;;;;;;;;;;5005327;28;20207;-64
2022/03/13 15:47:36;;;;;;;9.90;7.97;;;;;;;;;;5014367;28;20239;-65
2022/03/13 15:50:05;;;;;;;10.20;7.65;;;;;;;;;;5031789;28;20198;-66
2022/03/13 15:52:32;;;;;;;9.20;7.60;;;;;;;;;;5002207;28;20222;-65
2022/03/13 15:55:00;;;;;;;13.27;7.28;;;;;;;;;;5015785;28;20250;-65
2022/03/13 15:57:27;;;;;;;9.77;7.70;;;;;;;;;;5012525;28;20230;-65
2022/03/13 15:59:58;;;;;;;7.82;6.57;;;;;;;;;;5028718;28;21097;-64
2022/03/13 16:02:30;;;;;;;7.85;6.80;;;;;;;;;;5005559;28;20816;-65
2022/03/13 16:04:57;;;;;;;8.68;7.45;;;;;;;;;;5008190;28;20211;-65
2022/03/13 16:07:25;;;;;;;7.82;6.53;;;;;;;;;;5010600;28;20319;-66
2022/03/13 16:09:52;;;;;;;8.52;7.13;;;;;;;;;;5012685;28;22105;-67
2022/03/13 16:12:24;;;;;;;7.05;6.20;;;;;;;;;;5005990;28;20490;-65
2022/03/13 16:14:53;;;;;;;8.18;7.15;;;;;;;;;;5007975;28;20214;-65
2022/03/13 16:17:21;;;;;;;9.13;7.63;;;;;;;;;;5003756;28;20198;-66
2022/03/13 16:19:50;;;;;;;16.02;9.77;;;;;;;;;;5021909;28;20234;-67
2022/03/13 16:22:18;;;;;;;10.05;7.45;;;;;;;;;;5010682;28;20477;-65
2022/03/13 16:24:45;;;;;;;9.10;7.63;;;;;;;;;;5017983;28;20212;-65
2022/03/13 16:27:13;;;;;;;8.48;7.45;;;;;;;;;;5009108;28;20212;-66
2022/03/13 16:29:41;;;;;;;7.90;7.05;;;;;;;;;;5017320;28;20265;-64
2022/03/13 16:32:08;;;;;;;8.60;7.07;;;;;;;;;;5025916;28;20273;-65
2022/03/13 16:34:36;;;;;;;10.82;7.57;;;;;;;;;;5012132;28;20257;-66
2022/03/13 16:37:04;;;;;;;8.68;7.00;;;;;;;;;;5014075;28;20207;-66
2022/03/13 16:39:31;;;;;;;8.80;7.30;;;;;;;;;;5026955;28;20229;-66
2022/03/13 16:41:59;;;;;;;8.82;6.90;;;;;;;;;;5020319;28;22484;-66
2022/03/13 16:44:26;;;;;;;9.90;7.25;;;;;;;;;;5029674;28;20221;-66
2022/03/13 16:46:54;;;;;;;10.32;8.15;;;;;;;;;;5038340;28;20199;-66
2022/03/13 16:49:21;;;;;;;11.17;8.30;;;;;;;;;;5041860;28;20590;-64
2022/03/13 16:51:48;;;;;;;9.37;7.63;;;;;;;;;;5039757;28;20211;-67
2022/03/13 16:54:16;;;;;;;11.43;8.27;;;;;;;;;;5025172;28;20211;-66
2022/03/13 16:56:44;;;;;;;9.83;7.67;;;;;;;;;;5044527;28;20211;-66
2022/03/13 16:59:11;;;;;;;12.47;8.70;;;;;;;;;;5028307;28;20296;-66
2022/03/13 17:01:42;;;;;;;14.63;10.47;;;;;;;;;;5039906;28;20214;-65
2022/03/13 17:04:09;;;;;;;10.37;8.23;;;;;;;;;;5023039;28;20204;-68
2022/03/13 17:06:37;;;;;;;10.40;8.33;;;;;;;;;;5029001;28;20269;-64
2022/03/13 17:09:04;;;;;;;9.27;7.77;;;;;;;;;;5035791;28;20242;-66
2022/03/13 17:11:32;;;;;;;10.87;7.53;;;;;;;;;;5026817;28;20199;-65
2022/03/13 17:14:00;;;;;;;12.03;7.77;;;;;;;;;;5008792;28;20204;-66
2022/03/13 17:16:27;;;;;;;9.20;7.57;;;;;;;;;;5022634;28;20309;-66
2022/03/13 17:18:55;;;;;;;9.57;7.50;;;;;;;;;;5021459;28;20238;-65
2022/03/13 17:21:23;;;;;;;10.60;7.33;;;;;;;;;;5012230;28;20665;-65
2022/03/13 17:23:50;;;;;;;37.90;25.50;;;;;;;;;;5033043;28;20676;-65
2022/03/13 17:26:20;;;;;;;19.90;14.63;;;;;;;;;;5019800;28;20224;-64
2022/03/13 17:28:47;;;;;;;13.20;11.00;;;;;;;;;;5029266;28;20268;-65
2022/03/13 17:31:15;;;;;;;10.60;8.70;;;;;;;;;;5008816;28;20211;-65
2022/03/13 17:33:42;;;;;;;10.27;7.90;;;;;;;;;;5026927;28;20215;-66
2022/03/13 17:36:10;;;;;;;11.13;7.93;;;;;;;;;;5013726;28;20212;-66
2022/03/13 17:38:37;;;;;;;11.83;8.93;;;;;;;;;;5038141;28;20234;-65
2022/03/13 17:41:07;;;;;;;11.67;9.10;;;;;;;;;;5022100;28;20204;-66
2022/03/13 17:43:34;;;;;;;12.17;8.77;;;;;;;;;;5017116;28;20211;-65
2022/03/13 17:46:01;;;;;;;13.03;9.30;;;;;;;;;;5037853;28;20237;-65
2022/03/13 17:48:29;;;;;;;12.10;8.20;;;;;;;;;;5018194;28;20783;-66
2022/03/13 17:50:56;;;;;;;13.67;9.70;;;;;;;;;;5014806;28;20443;-65
2022/03/13 17:53:24;;;;;;;19.87;12.60;;;;;;;;;;5027100;28;20493;-65
2022/03/13 17:55:51;;;;;;;17.13;11.90;;;;;;;;;;5030564;28;20219;-66
2022/03/13 17:58:22;;;;;;;18.83;11.93;;;;;;;;;;5015076;28;20701;-66
2022/03/13 18:00:50;;;;;;;14.73;10.30;;;;;;;;;;5024936;28;20198;-67
2022/03/13 18:03:18;;;;;;;14.00;9.23;;;;;;;;;;5017766;28;20644;-65
2022/03/13 18:05:45;;;;;;;12.80;10.07;;;;;;;;;;5023167;28;20225;-66
2022/03/13 18:08:13;;;;;;;15.13;11.60;;;;;;;;;;5032730;28;20344;-66
2022/03/13 18:10:40;;;;;;;15.10;10.90;;;;;;;;;;5031992;28;21736;-66
2022/03/13 18:13:07;;;;;;;29.70;20.50;;;;;;;;;;5036504;28;20277;-66
2022/03/13 18:15:35;;;;;;;20.17;13.93;;;;;;;;;;5029152;28;20207;-66
2022/03/13 18:18:03;;;;;;;18.43;12.47;;;;;;;;;;5013165;28;20407;-65
2022/03/13 18:20:30;;;;;;;16.27;11.07;;;;;;;;;;5023613;28;20225;-65
2022/03/13 18:22:58;;;;;;;16.53;11.07;;;;;;;;;;5040193;28;20215;-65
2022/03/13 18:25:28;;;;;;;13.03;10.40;;;;;;;;;;5011507;28;20222;-65
2022/03/13 18:27:56;;;;;;;13.83;10.10;;;;;;;;;;5023503;28;20222;-64
2022/03/13 18:30:24;;;;;;;18.80;11.67;;;;;;;;;;5037236;28;20214;-65
2022/03/13 18:32:52;;;;;;;16.53;11.20;;;;;;;;;;5032579;28;20236;-63
2022/03/13 18:35:23;;;;;;;14.40;10.83;;;;;;;;;;5033722;28;20212;-64
2022/03/13 18:37:51;;;;;;;18.17;12.23;;;;;;;;;;5015491;28;20226;-66
2022/03/13 18:40:19;;;;;;;13.90;10.70;;;;;;;;;;5020288;28;20238;-65
2022/03/13 18:42:47;;;;;;;16.20;10.90;;;;;;;;;;5013417;28;20210;-66
2022/03/13 18:45:15;;;;;;;15.47;10.47;;;;;;;;;;5013067;28;20198;-65
2022/03/13 18:47:47;;;;;;;18.53;10.80;;;;;;;;;;5010511;28;20230;-65
2022/03/13 18:50:14;;;;;;;15.43;11.07;;;;;;;;;;5006704;28;20356;-65
2022/03/13 18:52:43;;;;;;;14.80;10.73;;;;;;;;;;5028071;28;20207;-65
2022/03/13 18:55:10;;;;;;;15.60;11.10;;;;;;;;;;5021318;28;20238;-65
2022/03/13 18:57:38;;;;;;;15.63;10.53;;;;;;;;;;5039577;28;20241;-64
2022/03/13 19:00:06;;;;;;;14.40;10.23;;;;;;;;;;5025132;28;20218;-65
2022/03/13 19:02:35;;;;;;;16.10;11.53;;;;;;;;;;5024194;28;20271;-64
2022/03/13 19:05:03;;;;;;;12.23;9.30;;;;;;;;;;5035479;28;20578;-65
2022/03/13 19:07:32;;;;;;;15.43;10.17;;;;;;;;;;5046355;28;20701;-65
2022/03/13 19:09:59;;;;;;;15.27;10.63;;;;;;;;;;5026736;28;20286;-65
2022/03/13 19:12:27;;;;;;;14.10;10.10;;;;;;;;;;5022633;28;20240;-65
2022/03/13 19:14:58;;;;;;;12.43;8.73;;;;;;;;;;5028503;28;20683;-64
2022/03/13 19:17:30;;;;;;;15.40;9.90;;;;;;;;;;5030794;28;20217;-65
2022/03/13 19:19:59;;;;;;;16.30;9.97;;;;;;;;;;5048174;28;20230;-65
2022/03/13 19:22:29;;;;;;;13.20;9.90;;;;;;;;;;5023897;28;20211;-65
2022/03/13 19:24:57;;;;;;;15.30;10.77;;;;;;;;;;5035558;28;20685;-64
2022/03/13 19:27:27;;;;;;;14.93;10.10;;;;;;;;;;5038061;28;20223;-65
2022/03/13 19:29:55;;;;;;;14.40;9.47;;;;;;;;;;5024638;28;20203;-64
2022/03/13 19:32:22;;;;;;;15.30;9.83;;;;;;;;;;5027573;28;20236;-66
2022/03/13 19:34:51;;;;;;;13.40;9.07;;;;;;;;;;5039998;28;20214;-66
2022/03/13 19:37:18;;;;;;;12.93;9.40;;;;;;;;;;5028668;28;20203;-65
2022/03/13 19:39:47;;;;;;;14.33;9.53;;;;;;;;;;5028870;28;20230;-66
2022/03/13 19:42:15;;;;;;;12.47;8.70;;;;;;;;;;5021549;28;20195;-66
2022/03/13 19:44:43;;;;;;;13.23;9.93;;;;;;;;;;5014306;28;20214;-63
2022/03/13 19:47:11;;;;;;;13.03;9.07;;;;;;;;;;5021529;28;20200;-65
2022/03/13 19:49:38;;;;;;;13.87;9.97;;;;;;;;;;5037857;28;20218;-66
2022/03/13 19:52:06;;;;;;;14.07;10.40;;;;;;;;;;5017013;28;20720;-65
2022/03/13 19:54:34;;;;;;;12.77;9.27;;;;;;;;;;5039481;28;20290;-65
2022/03/13 19:57:01;;;;;;;14.77;9.53;;;;;;;;;;5024681;28;20210;-64
2022/03/13 19:59:29;;;;;;;14.40;11.23;;;;;;;;;;5030347;28;20474;-65
2022/03/13 20:01:57;;;;;;;15.83;9.17;;;;;;;;;;5027648;28;20234;-63
2022/03/13 20:04:31;;;;;;;12.93;9.13;;;;;;;;;;5024850;28;20623;-65
2022/03/13 20:07:00;;;;;;;15.90;9.87;;;;;;;;;;5041263;28;20213;-65
2022/03/13 20:09:33;;;;;;;14.17;9.60;;;;;;;;;;5028146;28;20206;-65
2022/03/13 20:12:02;;;;;;;12.53;9.17;;;;;;;;;;5028006;28;20217;-65
2022/03/13 20:14:30;;;;;;;13.33;9.33;;;;;;;;;;5025237;28;20580;-65
2022/03/13 20:16:57;;;;;;;13.50;9.13;;;;;;;;;;5031180;28;20272;-66
2022/03/13 20:19:24;;;;;;;12.20;8.27;;;;;;;;;;5024016;28;20692;-66
2022/03/13 20:21:52;;;;;;;11.80;8.77;;;;;;;;;;5039718;28;20221;-65
2022/03/13 20:24:23;;;;;;;17.33;10.40;;;;;;;;;;5029748;28;20301;-65
2022/03/13 20:26:54;;;;;;;15.67;10.73;;;;;;;;;;5020468;28;20210;-65
2022/03/13 20:29:21;;;;;;;17.90;11.27;;;;;;;;;;5039163;28;20233;-65
2022/03/13 20:31:49;;;;;;;16.43;10.20;;;;;;;;;;5040775;28;20253;-65
2022/03/13 20:34:17;;;;;;;13.47;9.10;;;;;;;;;;5022918;28;20265;-66
2022/03/13 20:36:46;;;;;;;13.83;9.50;;;;;;;;;;5023326;28;20207;-65
2022/03/13 20:39:14;;;;;;;12.37;9.07;;;;;;;;;;5029376;28;20598;-66
2022/03/13 20:41:42;;;;;;;12.73;8.60;;;;;;;;;;5021612;28;20195;-66
2022/03/13 20:44:11;;;;;;;12.13;9.13;;;;;;;;;;5020119;28;20207;-66
2022/03/13 20:46:38;;;;;;;11.83;8.80;;;;;;;;;;5031912;28;20756;-65
2022/03/13 20:49:13;;;;;;;15.33;10.20;;;;;;;;;;5009749;28;20227;-65
2022/03/13 20:51:40;;;;;;;13.63;9.87;;;;;;;;;;5023002;28;20643;-65
2022/03/13 20:54:11;;;;;;;14.63;9.67;;;;;;;;;;5017316;28;20208;-65
2022/03/13 20:56:39;;;;;;;13.87;10.10;;;;;;;;;;5029792;28;20675;-65
2022/03/13 20:59:12;;;;;;;14.57;9.63;;;;;;;;;;5034422;28;20475;-65
2022/03/13 21:01:40;;;;;;;13.27;9.10;;;;;;;;;;5041806;28;20620;-65
2022/03/13 21:04:08;;;;;;;14.23;9.73;;;;;;;;;;5016164;28;20211;-65
2022/03/13 21:06:37;;;;;;;13.80;9.00;;;;;;;;;;5033202;28;20209;-65
2022/03/13 21:09:05;;;;;;;13.03;8.97;;;;;;;;;;5028408;28;21649;-66
2022/03/13 21:11:44;;;;;;;13.00;9.40;;;;;;;;;;5022551;28;20216;-65
2022/03/13 21:14:13;;;;;;;14.47;9.77;;;;;;;;;;5038147;28;20218;-65
2022/03/13 21:16:43;;;;;;;13.27;9.30;;;;;;;;;;5043793;28;20214;-65
2022/03/13 21:19:11;;;;;;;13.23;9.00;;;;;;;;;;5022655;28;20238;-65
2022/03/13 21:21:39;;;;;;;14.80;9.47;;;;;;;;;;5038294;28;20622;-65
2022/03/13 21:24:08;;;;;;;13.20;9.03;;;;;;;;;;5022723;28;20220;-65
2022/03/13 21:26:36;;;;;;;13.43;9.20;;;;;;;;;;5041245;28;20198;-65
2022/03/13 21:29:04;;;;;;;15.03;9.00;;;;;;;;;;5034442;28;20234;-65
2022/03/13 21:31:34;;;;;;;12.97;8.83;;;;;;;;;;5022187;28;20210;-65
2022/03/13 21:34:02;;;;;;;12.23;9.37;;;;;;;;;;5023952;28;20199;-65
2022/03/13 21:36:29;;;;;;;14.23;9.53;;;;;;;;;;5026666;28;20213;-65
2022/03/13 21:38:56;;;;;;;18.20;11.37;;;;;;;;;;5043567;28;20261;-63
2022/03/13 21:41:24;;;;;;;17.13;11.33;;;;;;;;;;5028161;28;20248;-65
2022/03/13 21:43:51;;;;;;;16.80;10.80;;;;;;;;;;5030556;28;20207;-65
2022/03/13 21:46:20;;;;;;;15.87;10.87;;;;;;;;;;5025280;28;20195;-66
2022/03/13 21:48:48;;;;;;;16.73;11.77;;;;;;;;;;5025085;28;20245;-64
2022/03/13 21:51:15;;;;;;;32.13;19.73;;;;;;;;;;5030572;28;20654;-65
2022/03/13 21:53:43;;;;;;;24.17;14.97;;;;;;;;;;5040718;28;20561;-64
2022/03/13 21:56:30;;;;;;;14.10;9.57;;;;;;;;;;5028054;28;20233;-65
2022/03/13 21:58:57;;;;;;;13.70;9.83;;;;;;;;;;5011236;28;20704;-67
2022/03/13 22:01:25;;;;;;;14.47;9.30;;;;;;;;;;5017124;28;20627;-65
2022/03/13 22:03:53;;;;;;;17.03;9.83;;;;;;;;;;5017783;28;20219;-65
2022/03/13 22:06:21;;;;;;;14.53;9.80;;;;;;;;;;5013873;28;20298;-64
2022/03/13 22:08:48;;;;;;;15.23;9.93;;;;;;;;;;5013862;28;21003;-65
2022/03/13 22:11:16;;;;;;;15.20;10.87;;;;;;;;;;5027839;28;20260;-64
2022/03/13 22:13:48;;;;;;;14.17;10.57;;;;;;;;;;5011358;28;20212;-65
2022/03/13 22:16:19;;;;;;;16.47;10.90;;;;;;;;;;5023696;28;20594;-66
2022/03/13 22:18:47;;;;;;;20.53;15.03;;;;;;;;;;5022520;28;20230;-65
2022/03/13 22:21:16;;;;;;;21.47;14.97;;;;;;;;;;5007785;28;20246;-63
2022/03/13 22:23:44;;;;;;;21.10;14.60;;;;;;;;;;5014126;28;20202;-66
2022/03/13 22:26:12;;;;;;;23.43;15.13;;;;;;;;;;5032613;28;20207;-65
2022/03/13 22:28:59;;;;;;;21.37;14.87;;;;;;;;;;5022421;28;20226;-65
2022/03/13 22:31:26;;;;;;;21.00;13.33;;;;;;;;;;5012090;28;20262;-64
2022/03/13 22:33:54;;;;;;;21.83;13.13;;;;;;;;;;5022682;28;20265;-65
2022/03/13 22:36:22;;;;;;;18.10;12.17;;;;;;;;;;5025044;28;20210;-65
2022/03/13 22:38:49;;;;;;;19.93;13.60;;;;;;;;;;5032844;28;20227;-65
2022/03/13 22:41:16;;;;;;;26.90;16.67;;;;;;;;;;5032788;28;20289;-64
2022/03/13 22:43:44;;;;;;;23.67;15.17;;;;;;;;;;5010699;28;20209;-65
2022/03/13 22:46:11;;;;;;;20.70;13.00;;;;;;;;;;5011711;28;20207;-64
2022/03/13 22:48:39;;;;;;;17.83;12.17;;;;;;;;;;5017188;28;20735;-64
2022/03/13 22:51:07;;;;;;;18.93;12.30;;;;;;;;;;5015224;28;20217;-65
2022/03/13 22:53:39;;;;;;;18.47;13.20;;;;;;;;;;5015127;28;20208;-65
2022/03/13 22:56:13;;;;;;;20.13;12.00;;;;;;;;;;5008911;28;20617;-65
2022/03/13 22:58:45;;;;;;;17.30;11.27;;;;;;;;;;5008751;28;20340;-64
2022/03/13 23:01:16;;;;;;;15.73;10.87;;;;;;;;;;5010962;28;20225;-66
2022/03/13 23:03:45;;;;;;;15.97;10.50;;;;;;;;;;5020215;28;20207;-64
2022/03/13 23:06:13;;;;;;;16.87;10.73;;;;;;;;;;5011115;28;20235;-64
2022/03/13 23:08:41;;;;;;;18.40;10.47;;;;;;;;;;5038666;28;20229;-66
2022/03/13 23:11:13;;;;;;;15.13;10.90;;;;;;;;;;5027383;28;20206;-65
2022/03/13 23:13:43;;;;;;;15.07;11.03;;;;;;;;;;5014069;28;20211;-64
2022/03/13 23:16:11;;;;;;;16.43;11.03;;;;;;;;;;5038400;28;20211;-66
2022/03/13 23:18:41;;;;;;;17.07;10.23;;;;;;;;;;5041939;28;20704;-65
2022/03/13 23:21:14;;;;;;;16.10;10.20;;;;;;;;;;5030931;28;20583;-65
2022/03/13 23:23:43;;;;;;;14.73;10.30;;;;;;;;;;5026331;28;20708;-65
2022/03/13 23:26:11;;;;;;;13.57;9.50;;;;;;;;;;5022024;28;20214;-64
2022/03/13 23:28:40;;;;;;;15.30;9.97;;;;;;;;;;5005756;28;20227;-64
2022/03/13 23:31:12;;;;;;;13.63;9.00;;;;;;;;;;5023099;28;20314;-65
2022/03/13 23:33:40;;;;;;;13.83;9.30;;;;;;;;;;5039534;28;20228;-65